ダブリン空港の過去48時間の天気

ダブリン空港 (Dublin Airport)

現在時刻: 8/6 22:21 IST (8/6 21:21 UTC) 以下の時間は現地時間です。

過去48時間のMETAR気象情報
時間 風向 風速(m/s) 視程 気温(℃) 湿度(%) 気圧(hPa) 天気現象
6 22:00 南南東 4 10km以上 18 77 1014
6 21:30 南南東 3 10km以上 19 73 1014
6 21:00 南南東 5 10km以上 19 73 1014
6 20:30 4 10km以上 19 78 1014
EIDW 062100Z 16007KT 9999 FEW015 BKN040 18/14 Q1014 NOSIG
EIDW 062030Z 15006KT 110V170 9999 FEW015 BKN040 19/14 Q1014 NOSIG
EIDW 062000Z 15009KT 120V180 9999 FEW012 BKN040 19/14 Q1014 NOSIG
EIDW 061930Z 19007KT 150V260 9999 FEW012 BKN040 19/15 Q1014 NOSIG